sensor_id;sensor_type;location;lat;lon;timestamp;temperature;humidity
32187;DHT22;18686;53.084;8.872;2023-09-30T00:02:36;11.80;99.90
32187;DHT22;18686;53.084;8.872;2023-09-30T00:05:05;11.80;99.90
32187;DHT22;18686;53.084;8.872;2023-09-30T00:07:33;11.70;99.90
32187;DHT22;18686;53.084;8.872;2023-09-30T00:10:02;11.70;99.90
32187;DHT22;18686;53.084;8.872;2023-09-30T00:12:32;11.70;99.90
32187;DHT22;18686;53.084;8.872;2023-09-30T00:15:00;11.70;99.90
32187;DHT22;18686;53.084;8.872;2023-09-30T00:17:29;11.60;99.90
32187;DHT22;18686;53.084;8.872;2023-09-30T00:19:57;11.60;99.90
32187;DHT22;18686;53.084;8.872;2023-09-30T00:22:26;11.60;99.90
32187;DHT22;18686;53.084;8.872;2023-09-30T00:24:54;11.60;99.90
32187;DHT22;18686;53.084;8.872;2023-09-30T00:27:22;11.60;99.90
32187;DHT22;18686;53.084;8.872;2023-09-30T00:29:52;11.60;99.90
32187;DHT22;18686;53.084;8.872;2023-09-30T00:32:20;11.60;99.90
32187;DHT22;18686;53.084;8.872;2023-09-30T00:34:48;11.50;99.90
32187;DHT22;18686;53.084;8.872;2023-09-30T00:37:18;11.50;99.90
32187;DHT22;18686;53.084;8.872;2023-09-30T00:39:47;11.60;99.90
32187;DHT22;18686;53.084;8.872;2023-09-30T00:42:15;11.50;99.90
32187;DHT22;18686;53.084;8.872;2023-09-30T00:44:44;11.50;99.90
32187;DHT22;18686;53.084;8.872;2023-09-30T00:47:13;11.50;99.90
32187;DHT22;18686;53.084;8.872;2023-09-30T00:49:43;11.50;99.90
32187;DHT22;18686;53.084;8.872;2023-09-30T00:52:12;11.40;99.90
32187;DHT22;18686;53.084;8.872;2023-09-30T00:54:40;11.50;99.90
32187;DHT22;18686;53.084;8.872;2023-09-30T00:57:11;11.50;99.90
32187;DHT22;18686;53.084;8.872;2023-09-30T00:59:40;11.40;99.90
32187;DHT22;18686;53.084;8.872;2023-09-30T01:02:08;11.50;99.90
32187;DHT22;18686;53.084;8.872;2023-09-30T01:04:38;11.40;99.90
32187;DHT22;18686;53.084;8.872;2023-09-30T01:07:08;11.40;99.90
32187;DHT22;18686;53.084;8.872;2023-09-30T01:09:37;11.40;99.90
32187;DHT22;18686;53.084;8.872;2023-09-30T01:12:06;11.40;99.90
32187;DHT22;18686;53.084;8.872;2023-09-30T01:14:36;11.40;99.90
32187;DHT22;18686;53.084;8.872;2023-09-30T01:17:05;11.30;99.90
32187;DHT22;18686;53.084;8.872;2023-09-30T01:19:37;11.30;99.90
32187;DHT22;18686;53.084;8.872;2023-09-30T01:22:07;11.30;99.90
32187;DHT22;18686;53.084;8.872;2023-09-30T01:24:40;11.30;99.90
32187;DHT22;18686;53.084;8.872;2023-09-30T01:27:09;11.20;99.90
32187;DHT22;18686;53.084;8.872;2023-09-30T01:29:37;11.20;99.90
32187;DHT22;18686;53.084;8.872;2023-09-30T01:32:06;11.20;99.90
32187;DHT22;18686;53.084;8.872;2023-09-30T01:34:35;11.30;99.90
32187;DHT22;18686;53.084;8.872;2023-09-30T01:37:04;11.30;99.90
32187;DHT22;18686;53.084;8.872;2023-09-30T01:39:34;11.30;99.90
32187;DHT22;18686;53.084;8.872;2023-09-30T01:42:02;11.40;99.90
32187;DHT22;18686;53.084;8.872;2023-09-30T01:44:32;11.40;99.90
32187;DHT22;18686;53.084;8.872;2023-09-30T01:47:01;11.40;99.90
32187;DHT22;18686;53.084;8.872;2023-09-30T01:49:29;11.40;99.90
32187;DHT22;18686;53.084;8.872;2023-09-30T01:51:57;11.30;99.90
32187;DHT22;18686;53.084;8.872;2023-09-30T01:54:25;11.30;99.90
32187;DHT22;18686;53.084;8.872;2023-09-30T01:56:56;11.30;99.90
32187;DHT22;18686;53.084;8.872;2023-09-30T01:59:25;11.30;99.90
32187;DHT22;18686;53.084;8.872;2023-09-30T02:01:54;11.20;99.90
32187;DHT22;18686;53.084;8.872;2023-09-30T02:04:23;11.30;99.90
32187;DHT22;18686;53.084;8.872;2023-09-30T02:06:51;11.30;99.90
32187;DHT22;18686;53.084;8.872;2023-09-30T02:09:19;11.40;99.90
32187;DHT22;18686;53.084;8.872;2023-09-30T02:11:47;11.40;99.90
32187;DHT22;18686;53.084;8.872;2023-09-30T02:14:17;11.40;99.90
32187;DHT22;18686;53.084;8.872;2023-09-30T02:16:45;11.40;99.90
32187;DHT22;18686;53.084;8.872;2023-09-30T02:19:13;11.30;99.90
32187;DHT22;18686;53.084;8.872;2023-09-30T02:21:41;11.30;99.90
32187;DHT22;18686;53.084;8.872;2023-09-30T02:24:11;11.30;99.90
32187;DHT22;18686;53.084;8.872;2023-09-30T02:26:40;11.30;99.90
32187;DHT22;18686;53.084;8.872;2023-09-30T02:29:08;11.30;99.90
32187;DHT22;18686;53.084;8.872;2023-09-30T02:31:38;11.30;99.90
32187;DHT22;18686;53.084;8.872;2023-09-30T02:34:06;11.30;99.90
32187;DHT22;18686;53.084;8.872;2023-09-30T02:36:35;11.30;99.90
32187;DHT22;18686;53.084;8.872;2023-09-30T02:39:05;11.20;99.90
32187;DHT22;18686;53.084;8.872;2023-09-30T02:41:36;11.30;99.90
32187;DHT22;18686;53.084;8.872;2023-09-30T02:44:05;11.30;99.90
32187;DHT22;18686;53.084;8.872;2023-09-30T02:46:33;11.30;99.90
32187;DHT22;18686;53.084;8.872;2023-09-30T02:49:03;11.30;99.90
32187;DHT22;18686;53.084;8.872;2023-09-30T02:51:31;11.30;99.90
32187;DHT22;18686;53.084;8.872;2023-09-30T02:54:00;11.30;99.90
32187;DHT22;18686;53.084;8.872;2023-09-30T02:56:28;11.30;99.90
32187;DHT22;18686;53.084;8.872;2023-09-30T02:58:57;11.30;99.90
32187;DHT22;18686;53.084;8.872;2023-09-30T03:01:26;11.30;99.90
32187;DHT22;18686;53.084;8.872;2023-09-30T03:03:55;11.40;99.90
32187;DHT22;18686;53.084;8.872;2023-09-30T03:06:25;11.40;99.90
32187;DHT22;18686;53.084;8.872;2023-09-30T03:08:54;11.40;99.90
32187;DHT22;18686;53.084;8.872;2023-09-30T03:11:22;11.40;99.90
32187;DHT22;18686;53.084;8.872;2023-09-30T03:13:50;11.40;99.90
32187;DHT22;18686;53.084;8.872;2023-09-30T03:16:18;11.40;99.90
32187;DHT22;18686;53.084;8.872;2023-09-30T03:18:47;11.40;99.90
32187;DHT22;18686;53.084;8.872;2023-09-30T03:21:17;11.30;99.90
32187;DHT22;18686;53.084;8.872;2023-09-30T03:23:48;11.30;99.90
32187;DHT22;18686;53.084;8.872;2023-09-30T03:26:16;11.30;99.90
32187;DHT22;18686;53.084;8.872;2023-09-30T03:28:44;11.30;99.90
32187;DHT22;18686;53.084;8.872;2023-09-30T03:31:13;11.30;99.90
32187;DHT22;18686;53.084;8.872;2023-09-30T03:33:41;11.30;99.90
32187;DHT22;18686;53.084;8.872;2023-09-30T03:36:09;11.20;99.90
32187;DHT22;18686;53.084;8.872;2023-09-30T03:38:38;11.20;99.90
32187;DHT22;18686;53.084;8.872;2023-09-30T03:41:09;11.20;99.90
32187;DHT22;18686;53.084;8.872;2023-09-30T03:43:40;11.20;99.90
32187;DHT22;18686;53.084;8.872;2023-09-30T03:46:08;11.20;99.90
32187;DHT22;18686;53.084;8.872;2023-09-30T03:48:36;11.20;99.90
32187;DHT22;18686;53.084;8.872;2023-09-30T03:51:10;11.20;99.90
32187;DHT22;18686;53.084;8.872;2023-09-30T03:53:41;11.20;99.90
32187;DHT22;18686;53.084;8.872;2023-09-30T03:56:11;11.30;99.90
32187;DHT22;18686;53.084;8.872;2023-09-30T03:58:40;11.30;99.90
32187;DHT22;18686;53.084;8.872;2023-09-30T04:01:09;11.20;99.90
32187;DHT22;18686;53.084;8.872;2023-09-30T04:03:38;11.30;99.90
32187;DHT22;18686;53.084;8.872;2023-09-30T04:06:07;11.30;99.90
32187;DHT22;18686;53.084;8.872;2023-09-30T04:08:36;11.30;99.90
32187;DHT22;18686;53.084;8.872;2023-09-30T04:11:05;11.30;99.90
32187;DHT22;18686;53.084;8.872;2023-09-30T04:13:34;11.40;99.90
32187;DHT22;18686;53.084;8.872;2023-09-30T04:16:03;11.40;99.90
32187;DHT22;18686;53.084;8.872;2023-09-30T04:18:31;11.40;99.90
32187;DHT22;18686;53.084;8.872;2023-09-30T04:20:59;11.40;99.90
32187;DHT22;18686;53.084;8.872;2023-09-30T04:23:29;11.40;99.90
32187;DHT22;18686;53.084;8.872;2023-09-30T04:25:57;11.40;99.90
32187;DHT22;18686;53.084;8.872;2023-09-30T04:28:25;11.40;99.90
32187;DHT22;18686;53.084;8.872;2023-09-30T04:30:55;11.50;99.90
32187;DHT22;18686;53.084;8.872;2023-09-30T04:33:25;11.50;99.90
32187;DHT22;18686;53.084;8.872;2023-09-30T04:35:54;11.50;99.90
32187;DHT22;18686;53.084;8.872;2023-09-30T04:38:22;11.50;99.90
32187;DHT22;18686;53.084;8.872;2023-09-30T04:40:50;11.50;99.90
32187;DHT22;18686;53.084;8.872;2023-09-30T04:43:18;11.50;99.90
32187;DHT22;18686;53.084;8.872;2023-09-30T04:45:47;11.50;99.90
32187;DHT22;18686;53.084;8.872;2023-09-30T04:48:21;11.50;99.90
32187;DHT22;18686;53.084;8.872;2023-09-30T04:50:49;11.60;99.90
32187;DHT22;18686;53.084;8.872;2023-09-30T04:53:18;11.50;99.90
32187;DHT22;18686;53.084;8.872;2023-09-30T04:55:46;11.50;99.90
32187;DHT22;18686;53.084;8.872;2023-09-30T04:58:16;11.50;99.90
32187;DHT22;18686;53.084;8.872;2023-09-30T05:00:45;11.50;99.90
32187;DHT22;18686;53.084;8.872;2023-09-30T05:03:13;11.50;99.90
32187;DHT22;18686;53.084;8.872;2023-09-30T05:05:43;11.50;99.90
32187;DHT22;18686;53.084;8.872;2023-09-30T05:08:11;11.50;99.90
32187;DHT22;18686;53.084;8.872;2023-09-30T05:10:41;11.50;99.90
32187;DHT22;18686;53.084;8.872;2023-09-30T05:13:09;11.50;99.90
32187;DHT22;18686;53.084;8.872;2023-09-30T05:15:37;11.50;99.90
32187;DHT22;18686;53.084;8.872;2023-09-30T05:18:06;11.50;99.90
32187;DHT22;18686;53.084;8.872;2023-09-30T05:20:35;11.50;99.90
32187;DHT22;18686;53.084;8.872;2023-09-30T05:23:07;11.50;99.90
32187;DHT22;18686;53.084;8.872;2023-09-30T05:25:35;11.50;99.90
32187;DHT22;18686;53.084;8.872;2023-09-30T05:28:03;11.50;99.90
32187;DHT22;18686;53.084;8.872;2023-09-30T05:30:32;11.50;99.90
32187;DHT22;18686;53.084;8.872;2023-09-30T05:33:01;11.50;99.90
32187;DHT22;18686;53.084;8.872;2023-09-30T05:35:30;11.50;99.90
32187;DHT22;18686;53.084;8.872;2023-09-30T05:37:59;11.50;99.90
32187;DHT22;18686;53.084;8.872;2023-09-30T05:40:28;11.50;99.90
32187;DHT22;18686;53.084;8.872;2023-09-30T05:42:58;11.50;99.90
32187;DHT22;18686;53.084;8.872;2023-09-30T05:45:27;11.50;99.90
32187;DHT22;18686;53.084;8.872;2023-09-30T05:47:56;11.50;99.90
32187;DHT22;18686;53.084;8.872;2023-09-30T05:50:29;11.40;99.90
32187;DHT22;18686;53.084;8.872;2023-09-30T05:52:58;11.50;99.90
32187;DHT22;18686;53.084;8.872;2023-09-30T05:55:28;11.50;99.90
32187;DHT22;18686;53.084;8.872;2023-09-30T05:57:56;11.50;99.90
32187;DHT22;18686;53.084;8.872;2023-09-30T06:00:26;11.60;99.90
32187;DHT22;18686;53.084;8.872;2023-09-30T06:02:58;11.60;99.90
32187;DHT22;18686;53.084;8.872;2023-09-30T06:05:27;11.60;99.90
32187;DHT22;18686;53.084;8.872;2023-09-30T06:07:59;11.60;99.90
32187;DHT22;18686;53.084;8.872;2023-09-30T06:10:31;11.60;99.90
32187;DHT22;18686;53.084;8.872;2023-09-30T06:12:59;11.60;99.90
32187;DHT22;18686;53.084;8.872;2023-09-30T06:15:29;11.60;99.90
32187;DHT22;18686;53.084;8.872;2023-09-30T06:17:58;11.60;99.90
32187;DHT22;18686;53.084;8.872;2023-09-30T06:20:27;11.60;99.90
32187;DHT22;18686;53.084;8.872;2023-09-30T06:22:58;11.70;99.90
32187;DHT22;18686;53.084;8.872;2023-09-30T06:25:27;11.70;99.90
32187;DHT22;18686;53.084;8.872;2023-09-30T06:27:59;11.80;99.90
32187;DHT22;18686;53.084;8.872;2023-09-30T06:30:27;11.90;99.90
32187;DHT22;18686;53.084;8.872;2023-09-30T06:32:58;11.90;99.90
32187;DHT22;18686;53.084;8.872;2023-09-30T06:35:28;12.00;99.90
32187;DHT22;18686;53.084;8.872;2023-09-30T06:38:01;12.10;99.90
32187;DHT22;18686;53.084;8.872;2023-09-30T06:40:30;12.20;99.90
32187;DHT22;18686;53.084;8.872;2023-09-30T06:42:59;12.30;99.90
32187;DHT22;18686;53.084;8.872;2023-09-30T06:45:28;12.40;99.90
32187;DHT22;18686;53.084;8.872;2023-09-30T06:47:56;12.50;99.90
32187;DHT22;18686;53.084;8.872;2023-09-30T06:50:25;12.50;99.90
32187;DHT22;18686;53.084;8.872;2023-09-30T06:52:53;12.70;99.90
32187;DHT22;18686;53.084;8.872;2023-09-30T06:55:21;12.70;99.90
32187;DHT22;18686;53.084;8.872;2023-09-30T06:57:49;12.90;99.90
32187;DHT22;18686;53.084;8.872;2023-09-30T07:00:19;13.10;99.90
32187;DHT22;18686;53.084;8.872;2023-09-30T07:02:47;13.30;99.90
32187;DHT22;18686;53.084;8.872;2023-09-30T07:05:16;13.50;99.90
32187;DHT22;18686;53.084;8.872;2023-09-30T07:07:44;13.70;99.90
32187;DHT22;18686;53.084;8.872;2023-09-30T07:10:12;13.80;99.90
32187;DHT22;18686;53.084;8.872;2023-09-30T07:12:41;14.00;99.90
32187;DHT22;18686;53.084;8.872;2023-09-30T07:15:10;14.20;99.90
32187;DHT22;18686;53.084;8.872;2023-09-30T07:17:40;14.30;99.90
32187;DHT22;18686;53.084;8.872;2023-09-30T07:20:11;14.40;99.90
32187;DHT22;18686;53.084;8.872;2023-09-30T07:22:40;14.50;99.90
32187;DHT22;18686;53.084;8.872;2023-09-30T07:25:28;14.60;99.90
32187;DHT22;18686;53.084;8.872;2023-09-30T07:27:58;14.70;99.90
32187;DHT22;18686;53.084;8.872;2023-09-30T07:30:28;14.80;99.90
32187;DHT22;18686;53.084;8.872;2023-09-30T07:32:57;14.80;99.90
32187;DHT22;18686;53.084;8.872;2023-09-30T07:35:25;15.00;99.90
32187;DHT22;18686;53.084;8.872;2023-09-30T07:37:54;15.10;99.90
32187;DHT22;18686;53.084;8.872;2023-09-30T07:40:22;15.30;99.90
32187;DHT22;18686;53.084;8.872;2023-09-30T07:42:50;15.50;99.90
32187;DHT22;18686;53.084;8.872;2023-09-30T07:45:18;15.80;99.90
32187;DHT22;18686;53.084;8.872;2023-09-30T07:47:48;16.00;99.90
32187;DHT22;18686;53.084;8.872;2023-09-30T07:50:18;16.20;99.90
32187;DHT22;18686;53.084;8.872;2023-09-30T07:52:46;16.40;99.90
32187;DHT22;18686;53.084;8.872;2023-09-30T07:55:14;16.60;99.90
32187;DHT22;18686;53.084;8.872;2023-09-30T07:57:44;16.80;99.90
32187;DHT22;18686;53.084;8.872;2023-09-30T08:00:14;17.00;99.90
32187;DHT22;18686;53.084;8.872;2023-09-30T08:02:43;17.20;99.90
32187;DHT22;18686;53.084;8.872;2023-09-30T08:05:12;17.40;99.90
32187;DHT22;18686;53.084;8.872;2023-09-30T08:07:42;17.60;99.90
32187;DHT22;18686;53.084;8.872;2023-09-30T08:10:10;17.80;99.90
32187;DHT22;18686;53.084;8.872;2023-09-30T08:12:41;18.00;99.90
32187;DHT22;18686;53.084;8.872;2023-09-30T08:15:11;18.10;99.90
32187;DHT22;18686;53.084;8.872;2023-09-30T08:17:41;18.40;99.90
32187;DHT22;18686;53.084;8.872;2023-09-30T08:20:10;18.60;99.90
32187;DHT22;18686;53.084;8.872;2023-09-30T08:22:39;18.70;99.90
32187;DHT22;18686;53.084;8.872;2023-09-30T08:25:09;18.80;99.90
32187;DHT22;18686;53.084;8.872;2023-09-30T08:27:38;18.90;99.90
32187;DHT22;18686;53.084;8.872;2023-09-30T08:30:08;19.10;99.90
32187;DHT22;18686;53.084;8.872;2023-09-30T08:32:38;19.30;99.90
32187;DHT22;18686;53.084;8.872;2023-09-30T08:35:07;19.50;99.90
32187;DHT22;18686;53.084;8.872;2023-09-30T08:37:36;19.80;99.90
32187;DHT22;18686;53.084;8.872;2023-09-30T08:40:06;20.00;99.90
32187;DHT22;18686;53.084;8.872;2023-09-30T08:42:38;20.30;99.90
32187;DHT22;18686;53.084;8.872;2023-09-30T08:45:10;20.50;99.90
32187;DHT22;18686;53.084;8.872;2023-09-30T08:47:41;20.70;99.70
32187;DHT22;18686;53.084;8.872;2023-09-30T08:50:10;20.90;98.30
32187;DHT22;18686;53.084;8.872;2023-09-30T08:52:38;21.10;97.70
32187;DHT22;18686;53.084;8.872;2023-09-30T08:55:08;21.20;96.80
32187;DHT22;18686;53.084;8.872;2023-09-30T08:57:41;21.40;96.30
32187;DHT22;18686;53.084;8.872;2023-09-30T09:00:11;21.60;94.10
32187;DHT22;18686;53.084;8.872;2023-09-30T09:02:41;21.90;91.70
32187;DHT22;18686;53.084;8.872;2023-09-30T09:05:10;22.00;91.90
32187;DHT22;18686;53.084;8.872;2023-09-30T09:07:39;22.20;90.90
32187;DHT22;18686;53.084;8.872;2023-09-30T09:10:10;22.40;90.60
32187;DHT22;18686;53.084;8.872;2023-09-30T09:12:42;22.60;88.40
32187;DHT22;18686;53.084;8.872;2023-09-30T09:15:23;22.90;87.20
32187;DHT22;18686;53.084;8.872;2023-09-30T09:17:52;23.40;85.10
32187;DHT22;18686;53.084;8.872;2023-09-30T09:20:22;23.80;80.50
32187;DHT22;18686;53.084;8.872;2023-09-30T09:22:52;24.40;77.20
32187;DHT22;18686;53.084;8.872;2023-09-30T09:25:23;24.80;75.10
32187;DHT22;18686;53.084;8.872;2023-09-30T09:27:53;25.20;73.40
32187;DHT22;18686;53.084;8.872;2023-09-30T09:30:23;25.70;68.50
32187;DHT22;18686;53.084;8.872;2023-09-30T09:32:53;26.00;66.00
32187;DHT22;18686;53.084;8.872;2023-09-30T09:35:22;26.30;64.50
32187;DHT22;18686;53.084;8.872;2023-09-30T09:37:56;26.60;61.30
32187;DHT22;18686;53.084;8.872;2023-09-30T09:40:26;26.90;59.70
32187;DHT22;18686;53.084;8.872;2023-09-30T09:42:56;27.00;58.10
32187;DHT22;18686;53.084;8.872;2023-09-30T09:45:26;27.00;56.80
32187;DHT22;18686;53.084;8.872;2023-09-30T09:47:55;27.10;56.30
32187;DHT22;18686;53.084;8.872;2023-09-30T09:50:23;27.20;56.20
32187;DHT22;18686;53.084;8.872;2023-09-30T09:52:53;27.40;54.30
32187;DHT22;18686;53.084;8.872;2023-09-30T09:55:24;27.60;54.00
32187;DHT22;18686;53.084;8.872;2023-09-30T09:57:53;28.20;52.70
32187;DHT22;18686;53.084;8.872;2023-09-30T10:00:24;28.80;51.30
32187;DHT22;18686;53.084;8.872;2023-09-30T10:02:53;29.80;50.20
32187;DHT22;18686;53.084;8.872;2023-09-30T10:05:21;30.50;46.00
32187;DHT22;18686;53.084;8.872;2023-09-30T10:07:52;31.40;44.90
32187;DHT22;18686;53.084;8.872;2023-09-30T10:10:23;32.20;44.20
32187;DHT22;18686;53.084;8.872;2023-09-30T10:12:52;32.70;42.60
32187;DHT22;18686;53.084;8.872;2023-09-30T10:15:40;33.20;41.70
32187;DHT22;18686;53.084;8.872;2023-09-30T10:18:09;33.50;40.90
32187;DHT22;18686;53.084;8.872;2023-09-30T10:20:42;33.80;39.20
32187;DHT22;18686;53.084;8.872;2023-09-30T10:23:26;34.20;38.90
32187;DHT22;18686;53.084;8.872;2023-09-30T10:26:15;34.80;38.40
32187;DHT22;18686;53.084;8.872;2023-09-30T10:28:46;35.50;36.20
32187;DHT22;18686;53.084;8.872;2023-09-30T10:31:19;35.70;35.60
32187;DHT22;18686;53.084;8.872;2023-09-30T10:34:17;35.60;36.10
32187;DHT22;18686;53.084;8.872;2023-09-30T10:36:47;35.40;34.90
32187;DHT22;18686;53.084;8.872;2023-09-30T10:39:53;35.30;34.90
32187;DHT22;18686;53.084;8.872;2023-09-30T10:42:43;35.30;34.70
32187;DHT22;18686;53.084;8.872;2023-09-30T10:45:42;35.80;34.70
32187;DHT22;18686;53.084;8.872;2023-09-30T10:48:35;36.20;33.70
32187;DHT22;18686;53.084;8.872;2023-09-30T10:51:21;36.60;33.00
32187;DHT22;18686;53.084;8.872;2023-09-30T10:53:51;36.70;32.40
32187;DHT22;18686;53.084;8.872;2023-09-30T10:56:21;36.60;32.40
32187;DHT22;18686;53.084;8.872;2023-09-30T10:58:51;36.40;32.50
32187;DHT22;18686;53.084;8.872;2023-09-30T11:01:21;36.40;32.50
32187;DHT22;18686;53.084;8.872;2023-09-30T11:03:58;36.80;31.10
32187;DHT22;18686;53.084;8.872;2023-09-30T11:06:31;37.10;31.60
32187;DHT22;18686;53.084;8.872;2023-09-30T11:09:00;37.40;31.70
32187;DHT22;18686;53.084;8.872;2023-09-30T11:11:36;37.50;31.00
32187;DHT22;18686;53.084;8.872;2023-09-30T11:14:17;37.80;30.30
32187;DHT22;18686;53.084;8.872;2023-09-30T11:16:46;38.30;30.30
32187;DHT22;18686;53.084;8.872;2023-09-30T11:19:16;38.20;30.40
32187;DHT22;18686;53.084;8.872;2023-09-30T11:21:48;38.50;30.80
32187;DHT22;18686;53.084;8.872;2023-09-30T11:24:17;38.60;30.00
32187;DHT22;18686;53.084;8.872;2023-09-30T11:26:46;38.60;30.30
32187;DHT22;18686;53.084;8.872;2023-09-30T11:29:16;38.90;30.00
32187;DHT22;18686;53.084;8.872;2023-09-30T11:31:46;38.90;29.70
32187;DHT22;18686;53.084;8.872;2023-09-30T11:34:17;38.00;29.80
32187;DHT22;18686;53.084;8.872;2023-09-30T11:36:48;36.60;30.30
32187;DHT22;18686;53.084;8.872;2023-09-30T11:39:27;35.70;31.20
32187;DHT22;18686;53.084;8.872;2023-09-30T11:41:56;34.40;32.10
32187;DHT22;18686;53.084;8.872;2023-09-30T11:44:25;33.60;33.10
32187;DHT22;18686;53.084;8.872;2023-09-30T11:46:56;33.40;33.90
32187;DHT22;18686;53.084;8.872;2023-09-30T11:49:29;34.10;33.80
32187;DHT22;18686;53.084;8.872;2023-09-30T11:51:59;34.80;33.10
32187;DHT22;18686;53.084;8.872;2023-09-30T11:54:29;35.60;32.60
32187;DHT22;18686;53.084;8.872;2023-09-30T11:56:59;36.30;31.50
32187;DHT22;18686;53.084;8.872;2023-09-30T11:59:28;37.00;31.10
32187;DHT22;18686;53.084;8.872;2023-09-30T12:01:56;37.40;30.30
32187;DHT22;18686;53.084;8.872;2023-09-30T12:04:42;37.40;30.40
32187;DHT22;18686;53.084;8.872;2023-09-30T12:07:12;37.00;30.80
32187;DHT22;18686;53.084;8.872;2023-09-30T12:09:40;36.60;30.70
32187;DHT22;18686;53.084;8.872;2023-09-30T12:12:10;36.30;31.10
32187;DHT22;18686;53.084;8.872;2023-09-30T12:14:41;36.50;31.30
32187;DHT22;18686;53.084;8.872;2023-09-30T12:17:09;36.30;30.80
32187;DHT22;18686;53.084;8.872;2023-09-30T12:19:39;35.40;31.40
32187;DHT22;18686;53.084;8.872;2023-09-30T12:22:10;34.80;32.00
32187;DHT22;18686;53.084;8.872;2023-09-30T12:24:39;34.20;32.70
32187;DHT22;18686;53.084;8.872;2023-09-30T12:27:08;33.40;33.10
32187;DHT22;18686;53.084;8.872;2023-09-30T12:29:36;33.10;34.00
32187;DHT22;18686;53.084;8.872;2023-09-30T12:32:06;33.30;34.10
32187;DHT22;18686;53.084;8.872;2023-09-30T12:34:35;33.30;34.10
32187;DHT22;18686;53.084;8.872;2023-09-30T12:37:03;33.50;33.60
32187;DHT22;18686;53.084;8.872;2023-09-30T12:39:33;33.80;33.80
32187;DHT22;18686;53.084;8.872;2023-09-30T12:42:01;34.10;33.70
32187;DHT22;18686;53.084;8.872;2023-09-30T12:44:36;34.00;33.00
32187;DHT22;18686;53.084;8.872;2023-09-30T12:47:04;34.10;33.30
32187;DHT22;18686;53.084;8.872;2023-09-30T12:49:33;34.70;33.20
32187;DHT22;18686;53.084;8.872;2023-09-30T12:52:01;35.30;32.40
32187;DHT22;18686;53.084;8.872;2023-09-30T12:54:32;35.70;31.90
32187;DHT22;18686;53.084;8.872;2023-09-30T12:57:02;35.90;31.90
32187;DHT22;18686;53.084;8.872;2023-09-30T12:59:30;36.20;32.00
32187;DHT22;18686;53.084;8.872;2023-09-30T13:02:01;36.20;31.70
32187;DHT22;18686;53.084;8.872;2023-09-30T13:04:29;36.30;31.30
32187;DHT22;18686;53.084;8.872;2023-09-30T13:06:57;36.20;30.60
32187;DHT22;18686;53.084;8.872;2023-09-30T13:09:26;36.60;30.30
32187;DHT22;18686;53.084;8.872;2023-09-30T13:11:54;36.80;30.20
32187;DHT22;18686;53.084;8.872;2023-09-30T13:14:24;36.50;29.70
32187;DHT22;18686;53.084;8.872;2023-09-30T13:16:54;36.00;31.00
32187;DHT22;18686;53.084;8.872;2023-09-30T13:19:23;35.90;31.10
32187;DHT22;18686;53.084;8.872;2023-09-30T13:21:51;36.30;31.50
32187;DHT22;18686;53.084;8.872;2023-09-30T13:24:20;36.90;30.00
32187;DHT22;18686;53.084;8.872;2023-09-30T13:26:49;37.50;29.90
32187;DHT22;18686;53.084;8.872;2023-09-30T13:29:19;37.50;29.80
32187;DHT22;18686;53.084;8.872;2023-09-30T13:31:48;37.40;29.90
32187;DHT22;18686;53.084;8.872;2023-09-30T13:34:17;37.30;29.90
32187;DHT22;18686;53.084;8.872;2023-09-30T13:36:45;36.70;29.80
32187;DHT22;18686;53.084;8.872;2023-09-30T13:39:13;35.30;30.50
32187;DHT22;18686;53.084;8.872;2023-09-30T13:41:44;33.90;31.60
32187;DHT22;18686;53.084;8.872;2023-09-30T13:44:14;32.70;32.50
32187;DHT22;18686;53.084;8.872;2023-09-30T13:46:42;31.40;34.20
32187;DHT22;18686;53.084;8.872;2023-09-30T13:49:12;30.30;35.50
32187;DHT22;18686;53.084;8.872;2023-09-30T13:51:40;29.40;37.00
32187;DHT22;18686;53.084;8.872;2023-09-30T13:54:08;28.70;38.00
32187;DHT22;18686;53.084;8.872;2023-09-30T13:56:37;28.10;38.80
32187;DHT22;18686;53.084;8.872;2023-09-30T13:59:05;27.50;39.70
32187;DHT22;18686;53.084;8.872;2023-09-30T14:01:37;27.00;40.00
32187;DHT22;18686;53.084;8.872;2023-09-30T14:04:08;26.40;41.20
32187;DHT22;18686;53.084;8.872;2023-09-30T14:06:38;26.00;42.00
32187;DHT22;18686;53.084;8.872;2023-09-30T14:09:07;25.60;43.20
32187;DHT22;18686;53.084;8.872;2023-09-30T14:11:59;25.20;44.40
32187;DHT22;18686;53.084;8.872;2023-09-30T14:14:27;24.90;44.70
32187;DHT22;18686;53.084;8.872;2023-09-30T14:16:55;24.50;45.80
32187;DHT22;18686;53.084;8.872;2023-09-30T14:19:24;24.20;46.30
32187;DHT22;18686;53.084;8.872;2023-09-30T14:21:53;23.80;47.60
32187;DHT22;18686;53.084;8.872;2023-09-30T14:24:23;23.60;48.00
32187;DHT22;18686;53.084;8.872;2023-09-30T14:26:51;23.20;49.30
32187;DHT22;18686;53.084;8.872;2023-09-30T14:29:19;23.00;49.10
32187;DHT22;18686;53.084;8.872;2023-09-30T14:31:48;22.80;49.70
32187;DHT22;18686;53.084;8.872;2023-09-30T14:34:16;22.60;51.10
32187;DHT22;18686;53.084;8.872;2023-09-30T14:36:44;22.50;52.40
32187;DHT22;18686;53.084;8.872;2023-09-30T14:39:15;22.40;52.70
32187;DHT22;18686;53.084;8.872;2023-09-30T14:41:45;22.40;52.40
32187;DHT22;18686;53.084;8.872;2023-09-30T14:44:13;22.40;52.80
32187;DHT22;18686;53.084;8.872;2023-09-30T14:46:41;22.30;53.60
32187;DHT22;18686;53.084;8.872;2023-09-30T14:49:11;22.30;53.40
32187;DHT22;18686;53.084;8.872;2023-09-30T14:51:40;22.30;53.70
32187;DHT22;18686;53.084;8.872;2023-09-30T14:54:08;22.30;53.40
32187;DHT22;18686;53.084;8.872;2023-09-30T14:56:38;22.20;53.50
32187;DHT22;18686;53.084;8.872;2023-09-30T14:59:06;22.20;53.50
32187;DHT22;18686;53.084;8.872;2023-09-30T15:01:34;22.20;53.70
32187;DHT22;18686;53.084;8.872;2023-09-30T15:04:03;22.10;54.40
32187;DHT22;18686;53.084;8.872;2023-09-30T15:06:33;22.00;54.80
32187;DHT22;18686;53.084;8.872;2023-09-30T15:09:02;22.00;54.50
32187;DHT22;18686;53.084;8.872;2023-09-30T15:11:30;21.90;54.60
32187;DHT22;18686;53.084;8.872;2023-09-30T15:14:00;21.90;55.40
32187;DHT22;18686;53.084;8.872;2023-09-30T15:16:28;21.80;55.20
32187;DHT22;18686;53.084;8.872;2023-09-30T15:18:57;21.70;55.30
32187;DHT22;18686;53.084;8.872;2023-09-30T15:21:25;21.50;56.10
32187;DHT22;18686;53.084;8.872;2023-09-30T15:23:53;21.40;56.90
32187;DHT22;18686;53.084;8.872;2023-09-30T15:26:23;21.30;56.90
32187;DHT22;18686;53.084;8.872;2023-09-30T15:28:51;21.20;57.20
32187;DHT22;18686;53.084;8.872;2023-09-30T15:31:26;21.20;57.30
32187;DHT22;18686;53.084;8.872;2023-09-30T15:33:55;21.10;57.40
32187;DHT22;18686;53.084;8.872;2023-09-30T15:36:24;21.00;57.80
32187;DHT22;18686;53.084;8.872;2023-09-30T15:38:52;20.90;57.90
32187;DHT22;18686;53.084;8.872;2023-09-30T15:41:23;20.80;58.20
32187;DHT22;18686;53.084;8.872;2023-09-30T15:43:52;20.60;59.10
32187;DHT22;18686;53.084;8.872;2023-09-30T15:46:21;20.50;59.50
32187;DHT22;18686;53.084;8.872;2023-09-30T15:48:50;20.40;61.10